sensor_id;sensor_type;location;lat;lon;timestamp;pressure;altitude;pressure_sealevel;temperature;humidity
60099;BME280;62818;49.394;8.686;2022-09-09T00:00:37;99908.69;;;17.01;97.76
60099;BME280;62818;49.394;8.686;2022-09-09T00:03:24;99910.94;;;17.80;93.83
60099;BME280;62818;49.394;8.686;2022-09-09T00:04:39;99899.44;;;17.80;92.78
60099;BME280;62818;49.394;8.686;2022-09-09T00:08:25;99898.66;;;17.26;97.65
60099;BME280;62818;49.394;8.686;2022-09-09T00:10:59;99896.22;;;17.48;96.11
60099;BME280;62818;49.394;8.686;2022-09-09T00:12:11;99897.41;;;17.87;93.42
60099;BME280;62818;49.394;8.686;2022-09-09T00:15:46;99895.09;;;17.90;92.23
60099;BME280;62818;49.394;8.686;2022-09-09T00:16:57;99904.44;;;17.64;93.94
60099;BME280;62818;49.394;8.686;2022-09-09T00:19:39;99906.28;;;18.10;91.16
60099;BME280;62818;49.394;8.686;2022-09-09T00:22:00;99901.63;;;17.83;91.82
60099;BME280;62818;49.394;8.686;2022-09-09T00:22:35;99904.31;;;17.83;93.16
60099;BME280;62818;49.394;8.686;2022-09-09T00:23:53;99903.84;;;17.86;92.65
60099;BME280;62818;49.394;8.686;2022-09-09T00:25:05;99901.75;;;17.76;93.76
60099;BME280;62818;49.394;8.686;2022-09-09T00:26:35;99894.72;;;17.87;90.10
60099;BME280;62818;49.394;8.686;2022-09-09T00:28:53;99898.09;;;18.17;88.09
60099;BME280;62818;49.394;8.686;2022-09-09T00:30:13;99894.03;;;18.03;88.92
60099;BME280;62818;49.394;8.686;2022-09-09T00:31:27;99898.09;;;18.17;89.44
60099;BME280;62818;49.394;8.686;2022-09-09T00:32:30;99904.16;;;18.24;88.81
60099;BME280;62818;49.394;8.686;2022-09-09T00:33:38;99904.88;;;18.19;89.51
60099;BME280;62818;49.394;8.686;2022-09-09T00:35:02;99895.31;;;18.12;88.50
60099;BME280;62818;49.394;8.686;2022-09-09T00:36:21;99901.34;;;18.30;87.08
60099;BME280;62818;49.394;8.686;2022-09-09T00:37:29;99896.75;;;18.42;85.94
60099;BME280;62818;49.394;8.686;2022-09-09T00:38:38;99900.53;;;18.18;87.86
60099;BME280;62818;49.394;8.686;2022-09-09T00:39:48;99892.41;;;17.78;86.42
60099;BME280;62818;49.394;8.686;2022-09-09T00:42:26;99898.13;;;18.05;86.08
60099;BME280;62818;49.394;8.686;2022-09-09T00:43:42;99900.44;;;18.13;85.90
60099;BME280;62818;49.394;8.686;2022-09-09T00:50:43;99902.53;;;18.11;81.21
60099;BME280;62818;49.394;8.686;2022-09-09T00:58:19;99901.75;;;18.50;81.59
60099;BME280;62818;49.394;8.686;2022-09-09T01:00:58;99901.84;;;18.67;81.79
60099;BME280;62818;49.394;8.686;2022-09-09T01:02:43;99904.66;;;19.34;77.39
60099;BME280;62818;49.394;8.686;2022-09-09T01:03:59;99905.81;;;19.54;74.70
60099;BME280;62818;49.394;8.686;2022-09-09T01:06:43;99910.28;;;19.82;75.11
60099;BME280;62818;49.394;8.686;2022-09-09T01:07:54;99913.88;;;18.65;75.58
60099;BME280;62818;49.394;8.686;2022-09-09T01:10:56;99909.41;;;18.70;78.01
60099;BME280;62818;49.394;8.686;2022-09-09T01:13:32;99920.78;;;18.49;75.07
60099;BME280;62818;49.394;8.686;2022-09-09T01:15:38;99910.69;;;19.74;73.42
60099;BME280;62818;49.394;8.686;2022-09-09T01:16:46;99915.66;;;19.65;72.05
60099;BME280;62818;49.394;8.686;2022-09-09T01:18:10;99916.72;;;19.81;73.39
60099;BME280;62818;49.394;8.686;2022-09-09T01:19:24;99914.88;;;19.65;70.52
60099;BME280;62818;49.394;8.686;2022-09-09T01:22:52;99920.38;;;19.42;73.26
60099;BME280;62818;49.394;8.686;2022-09-09T01:25:22;99919.44;;;19.19;72.84
60099;BME280;62818;49.394;8.686;2022-09-09T01:27:38;99925.38;;;19.05;74.30
60099;BME280;62818;49.394;8.686;2022-09-09T01:28:51;99915.88;;;19.14;73.57
60099;BME280;62818;49.394;8.686;2022-09-09T01:29:53;99918.94;;;19.51;73.81
60099;BME280;62818;49.394;8.686;2022-09-09T01:30:54;99908.50;;;19.71;72.39
60099;BME280;62818;49.394;8.686;2022-09-09T01:32:02;99924.41;;;19.11;72.69
60099;BME280;62818;49.394;8.686;2022-09-09T01:33:26;99916.25;;;18.78;73.97
60099;BME280;62818;49.394;8.686;2022-09-09T01:34:29;99910.69;;;18.28;76.34
60099;BME280;62818;49.394;8.686;2022-09-09T01:35:52;99912.50;;;19.07;75.54
60099;BME280;62818;49.394;8.686;2022-09-09T01:37:09;99919.81;;;19.40;72.40
60099;BME280;62818;49.394;8.686;2022-09-09T01:38:15;99912.44;;;18.74;75.95
60099;BME280;62818;49.394;8.686;2022-09-09T01:39:16;99907.75;;;18.18;78.66
60099;BME280;62818;49.394;8.686;2022-09-09T01:40:17;99906.34;;;18.27;77.94
60099;BME280;62818;49.394;8.686;2022-09-09T01:41:20;99917.47;;;18.70;76.67
60099;BME280;62818;49.394;8.686;2022-09-09T01:42:23;99917.47;;;19.60;73.36
60099;BME280;62818;49.394;8.686;2022-09-09T01:43:24;99922.22;;;19.24;73.66
60099;BME280;62818;49.394;8.686;2022-09-09T01:44:32;99917.63;;;19.53;73.02
60099;BME280;62818;49.394;8.686;2022-09-09T01:45:38;99932.69;;;19.38;73.23
60099;BME280;62818;49.394;8.686;2022-09-09T01:46:43;99923.19;;;18.74;76.12
60099;BME280;62818;49.394;8.686;2022-09-09T01:47:45;99926.19;;;19.05;76.00
60099;BME280;62818;49.394;8.686;2022-09-09T01:48:46;99927.69;;;18.33;77.32
60099;BME280;62818;49.394;8.686;2022-09-09T01:49:47;99920.06;;;18.65;77.10
60099;BME280;62818;49.394;8.686;2022-09-09T01:50:50;99924.50;;;19.16;75.85
60099;BME280;62818;49.394;8.686;2022-09-09T01:51:55;99921.81;;;19.33;73.70
60099;BME280;62818;49.394;8.686;2022-09-09T01:52:59;99916.69;;;18.58;76.56
60099;BME280;62818;49.394;8.686;2022-09-09T01:54:04;99918.72;;;19.07;75.58
60099;BME280;62818;49.394;8.686;2022-09-09T01:55:08;99931.88;;;19.09;74.69
60099;BME280;62818;49.394;8.686;2022-09-09T01:59:33;99932.78;;;19.43;72.90
60099;BME280;62818;49.394;8.686;2022-09-09T02:01:02;99927.56;;;19.36;72.51
60099;BME280;62818;49.394;8.686;2022-09-09T02:02:18;99925.31;;;18.88;74.34
60099;BME280;62818;49.394;8.686;2022-09-09T02:03:27;99925.81;;;18.85;76.38
60099;BME280;62818;49.394;8.686;2022-09-09T02:04:39;99915.16;;;18.62;75.18
60099;BME280;62818;49.394;8.686;2022-09-09T02:05:44;99928.50;;;18.57;75.78
60099;BME280;62818;49.394;8.686;2022-09-09T02:06:56;99919.31;;;18.30;78.69
60099;BME280;62818;49.394;8.686;2022-09-09T02:08:05;99933.91;;;18.74;75.63
60099;BME280;62818;49.394;8.686;2022-09-09T02:09:11;99926.50;;;18.92;75.42
60099;BME280;62818;49.394;8.686;2022-09-09T02:10:32;99935.91;;;18.67;77.16
60099;BME280;62818;49.394;8.686;2022-09-09T02:11:44;99915.72;;;18.13;78.47
60099;BME280;62818;49.394;8.686;2022-09-09T02:13:01;99914.53;;;18.09;79.81
60099;BME280;62818;49.394;8.686;2022-09-09T02:14:17;99923.53;;;18.03;79.74
60099;BME280;62818;49.394;8.686;2022-09-09T02:15:34;99919.75;;;18.38;78.46
60099;BME280;62818;49.394;8.686;2022-09-09T02:17:07;99927.34;;;18.81;76.08
60099;BME280;62818;49.394;8.686;2022-09-09T02:18:15;99918.47;;;18.41;77.19
60099;BME280;62818;49.394;8.686;2022-09-09T02:20:30;99917.88;;;19.07;75.27
60099;BME280;62818;49.394;8.686;2022-09-09T02:21:34;99912.09;;;18.19;78.79
60099;BME280;62818;49.394;8.686;2022-09-09T02:22:38;99922.44;;;18.38;79.80
60099;BME280;62818;49.394;8.686;2022-09-09T02:23:43;99921.28;;;18.23;78.77
60099;BME280;62818;49.394;8.686;2022-09-09T02:24:56;99931.75;;;19.15;75.34
60099;BME280;62818;49.394;8.686;2022-09-09T02:26:02;99918.91;;;18.61;76.50
60099;BME280;62818;49.394;8.686;2022-09-09T02:27:08;99918.94;;;18.38;78.59
60099;BME280;62818;49.394;8.686;2022-09-09T02:28:13;99925.53;;;17.72;81.04
60099;BME280;62818;49.394;8.686;2022-09-09T02:29:22;99916.66;;;18.07;80.35
60099;BME280;62818;49.394;8.686;2022-09-09T02:30:39;99927.31;;;18.53;78.50
60099;BME280;62818;49.394;8.686;2022-09-09T02:31:44;99924.56;;;18.25;78.69
60099;BME280;62818;49.394;8.686;2022-09-09T02:32:49;99931.31;;;18.39;78.50
60099;BME280;62818;49.394;8.686;2022-09-09T02:33:59;99923.22;;;18.50;78.45
60099;BME280;62818;49.394;8.686;2022-09-09T02:35:08;99924.69;;;18.07;80.32
60099;BME280;62818;49.394;8.686;2022-09-09T02:36:15;99925.88;;;18.11;80.80
60099;BME280;62818;49.394;8.686;2022-09-09T02:37:22;99925.28;;;17.86;82.46
60099;BME280;62818;49.394;8.686;2022-09-09T02:38:28;99921.69;;;17.92;82.48
60099;BME280;62818;49.394;8.686;2022-09-09T02:39:35;99916.44;;;17.97;82.67
60099;BME280;62818;49.394;8.686;2022-09-09T02:40:35;99928.63;;;18.27;81.03
60099;BME280;62818;49.394;8.686;2022-09-09T02:41:38;99923.84;;;18.18;81.09
60099;BME280;62818;49.394;8.686;2022-09-09T02:42:46;99922.50;;;17.81;82.43
60099;BME280;62818;49.394;8.686;2022-09-09T02:43:50;99931.22;;;17.76;83.80
60099;BME280;62818;49.394;8.686;2022-09-09T02:44:51;99918.53;;;17.95;83.08
60099;BME280;62818;49.394;8.686;2022-09-09T02:52:50;99919.00;;;17.68;83.58
60099;BME280;62818;49.394;8.686;2022-09-09T02:54:32;99922.69;;;17.44;85.14
60099;BME280;62818;49.394;8.686;2022-09-09T02:56:47;99918.59;;;17.42;85.80
60099;BME280;62818;49.394;8.686;2022-09-09T02:57:56;99912.69;;;17.63;84.42
60099;BME280;62818;49.394;8.686;2022-09-09T02:59:02;99920.50;;;17.88;83.36
60099;BME280;62818;49.394;8.686;2022-09-09T03:00:04;99916.66;;;17.60;84.95
60099;BME280;62818;49.394;8.686;2022-09-09T03:01:05;99919.69;;;17.52;85.09
60099;BME280;62818;49.394;8.686;2022-09-09T03:02:06;99925.56;;;17.43;85.73
60099;BME280;62818;49.394;8.686;2022-09-09T03:03:11;99917.91;;;17.46;85.85
60099;BME280;62818;49.394;8.686;2022-09-09T03:04:15;99909.09;;;17.57;84.95
60099;BME280;62818;49.394;8.686;2022-09-09T03:05:16;99920.19;;;17.20;86.82
60099;BME280;62818;49.394;8.686;2022-09-09T03:06:19;99910.28;;;17.20;87.59
60099;BME280;62818;49.394;8.686;2022-09-09T03:07:22;99900.63;;;17.31;86.86
60099;BME280;62818;49.394;8.686;2022-09-09T03:08:25;99904.72;;;17.33;87.17
60099;BME280;62818;49.394;8.686;2022-09-09T03:09:27;99910.50;;;17.07;88.07
60099;BME280;62818;49.394;8.686;2022-09-09T03:10:28;99911.47;;;17.24;87.29
60099;BME280;62818;49.394;8.686;2022-09-09T03:11:34;99911.19;;;17.67;85.66
60099;BME280;62818;49.394;8.686;2022-09-09T03:12:38;99908.63;;;17.84;84.23
60099;BME280;62818;49.394;8.686;2022-09-09T03:13:39;99904.34;;;17.30;85.63
60099;BME280;62818;49.394;8.686;2022-09-09T03:14:44;99904.50;;;17.46;85.55
60099;BME280;62818;49.394;8.686;2022-09-09T03:15:48;99898.34;;;16.93;87.73
60099;BME280;62818;49.394;8.686;2022-09-09T03:16:52;99894.66;;;17.17;87.12
60099;BME280;62818;49.394;8.686;2022-09-09T03:17:53;99909.28;;;17.03;87.74
60099;BME280;62818;49.394;8.686;2022-09-09T03:18:54;99892.97;;;16.93;88.85
60099;BME280;62818;49.394;8.686;2022-09-09T03:19:54;99895.31;;;17.01;87.65
60099;BME280;62818;49.394;8.686;2022-09-09T03:20:56;99896.25;;;16.95;87.53
60099;BME280;62818;49.394;8.686;2022-09-09T03:22:02;99910.69;;;16.94;87.65
60099;BME280;62818;49.394;8.686;2022-09-09T03:23:07;99895.25;;;16.78;89.06
60099;BME280;62818;49.394;8.686;2022-09-09T03:24:09;99900.28;;;16.86;87.80
60099;BME280;62818;49.394;8.686;2022-09-09T03:25:10;99898.78;;;17.43;85.98
60099;BME280;62818;49.394;8.686;2022-09-09T03:26:13;99899.59;;;16.90;85.77
60099;BME280;62818;49.394;8.686;2022-09-09T03:27:17;99908.16;;;16.81;86.96
60099;BME280;62818;49.394;8.686;2022-09-09T03:28:19;99904.78;;;16.74;87.11
60099;BME280;62818;49.394;8.686;2022-09-09T03:29:23;99907.13;;;16.82;86.88
60099;BME280;62818;49.394;8.686;2022-09-09T03:30:27;99908.03;;;17.05;85.55
60099;BME280;62818;49.394;8.686;2022-09-09T03:31:28;99903.56;;;17.29;84.68
60099;BME280;62818;49.394;8.686;2022-09-09T03:32:30;99905.44;;;17.40;84.28
60099;BME280;62818;49.394;8.686;2022-09-09T03:33:33;99905.63;;;17.27;83.56
60099;BME280;62818;49.394;8.686;2022-09-09T03:34:34;99906.50;;;16.98;85.11
60099;BME280;62818;49.394;8.686;2022-09-09T03:35:34;99912.50;;;17.12;86.16
60099;BME280;62818;49.394;8.686;2022-09-09T03:36:36;99906.25;;;17.29;83.70
60099;BME280;62818;49.394;8.686;2022-09-09T03:37:36;99912.44;;;17.00;85.24
60099;BME280;62818;49.394;8.686;2022-09-09T03:38:38;99917.13;;;17.16;85.33
60099;BME280;62818;49.394;8.686;2022-09-09T03:39:42;99905.28;;;17.24;84.68
60099;BME280;62818;49.394;8.686;2022-09-09T03:40:54;99911.19;;;17.14;85.73
60099;BME280;62818;49.394;8.686;2022-09-09T03:41:57;99914.44;;;17.16;85.39
60099;BME280;62818;49.394;8.686;2022-09-09T03:43:04;99905.88;;;17.26;84.15
60099;BME280;62818;49.394;8.686;2022-09-09T03:44:04;99906.44;;;17.28;85.12
60099;BME280;62818;49.394;8.686;2022-09-09T03:45:07;99901.88;;;17.58;82.79
60099;BME280;62818;49.394;8.686;2022-09-09T03:46:10;99911.66;;;17.11;84.54
60099;BME280;62818;49.394;8.686;2022-09-09T03:47:16;99903.78;;;16.86;86.31
60099;BME280;62818;49.394;8.686;2022-09-09T03:48:18;99911.88;;;17.10;86.00
60099;BME280;62818;49.394;8.686;2022-09-09T03:49:21;99905.75;;;17.32;84.24
60099;BME280;62818;49.394;8.686;2022-09-09T03:50:22;99900.75;;;17.24;84.83
60099;BME280;62818;49.394;8.686;2022-09-09T03:51:23;99900.00;;;17.58;83.35
60099;BME280;62818;49.394;8.686;2022-09-09T03:52:24;99905.47;;;17.11;84.24
60099;BME280;62818;49.394;8.686;2022-09-09T03:53:26;99909.31;;;16.73;86.64
60099;BME280;62818;49.394;8.686;2022-09-09T03:54:27;99910.97;;;17.27;84.35
60099;BME280;62818;49.394;8.686;2022-09-09T03:55:30;99906.72;;;17.49;82.83
60099;BME280;62818;49.394;8.686;2022-09-09T03:56:31;99905.00;;;17.02;85.58
60099;BME280;62818;49.394;8.686;2022-09-09T03:57:36;99910.72;;;16.76;86.25
60099;BME280;62818;49.394;8.686;2022-09-09T03:58:39;99907.22;;;17.05;85.52
60099;BME280;62818;49.394;8.686;2022-09-09T03:59:40;99903.72;;;17.16;85.39
60099;BME280;62818;49.394;8.686;2022-09-09T04:00:40;99908.63;;;16.78;86.06
60099;BME280;62818;49.394;8.686;2022-09-09T04:01:47;99916.38;;;16.68;87.04
60099;BME280;62818;49.394;8.686;2022-09-09T04:02:47;99909.72;;;17.41;85.61
60099;BME280;62818;49.394;8.686;2022-09-09T04:03:56;99914.38;;;17.34;83.84
60099;BME280;62818;49.394;8.686;2022-09-09T04:04:58;99914.63;;;17.33;84.87
60099;BME280;62818;49.394;8.686;2022-09-09T04:06:00;99910.44;;;17.37;83.99
60099;BME280;62818;49.394;8.686;2022-09-09T04:07:05;99919.44;;;16.71;86.40
60099;BME280;62818;49.394;8.686;2022-09-09T04:08:14;99915.56;;;16.97;86.67
60099;BME280;62818;49.394;8.686;2022-09-09T04:09:16;99925.88;;;17.23;86.34
60099;BME280;62818;49.394;8.686;2022-09-09T04:10:19;99917.06;;;17.34;84.26
60099;BME280;62818;49.394;8.686;2022-09-09T04:11:21;99919.00;;;17.16;85.34
60099;BME280;62818;49.394;8.686;2022-09-09T04:12:22;99918.38;;;17.02;86.02
60099;BME280;62818;49.394;8.686;2022-09-09T04:13:25;99917.41;;;16.96;86.21
60099;BME280;62818;49.394;8.686;2022-09-09T04:14:26;99922.38;;;17.11;85.99
60099;BME280;62818;49.394;8.686;2022-09-09T04:15:28;99919.03;;;16.86;87.16
60099;BME280;62818;49.394;8.686;2022-09-09T04:16:29;99914.31;;;16.70;87.91
60099;BME280;62818;49.394;8.686;2022-09-09T04:17:34;99925.19;;;16.86;87.68
60099;BME280;62818;49.394;8.686;2022-09-09T04:18:37;99926.47;;;16.84;88.14
60099;BME280;62818;49.394;8.686;2022-09-09T04:19:38;99925.09;;;16.93;87.07
60099;BME280;62818;49.394;8.686;2022-09-09T04:20:41;99922.19;;;16.94;86.66
60099;BME280;62818;49.394;8.686;2022-09-09T04:21:44;99916.56;;;16.84;87.40
60099;BME280;62818;49.394;8.686;2022-09-09T04:22:44;99932.19;;;16.87;87.14
60099;BME280;62818;49.394;8.686;2022-09-09T04:23:47;99922.09;;;17.01;87.93
60099;BME280;62818;49.394;8.686;2022-09-09T04:24:54;99920.53;;;17.23;85.48
60099;BME280;62818;49.394;8.686;2022-09-09T04:25:58;99921.00;;;17.20;85.55
60099;BME280;62818;49.394;8.686;2022-09-09T04:27:00;99925.06;;;17.11;85.54
60099;BME280;62818;49.394;8.686;2022-09-09T04:28:01;99920.19;;;16.90;86.72
60099;BME280;62818;49.394;8.686;2022-09-09T04:29:04;99923.63;;;16.79;86.80
60099;BME280;62818;49.394;8.686;2022-09-09T04:30:05;99923.47;;;16.62;87.84
60099;BME280;62818;49.394;8.686;2022-09-09T04:31:10;99920.84;;;16.74;87.91
60099;BME280;62818;49.394;8.686;2022-09-09T04:32:18;99931.00;;;17.13;87.29
60099;BME280;62818;49.394;8.686;2022-09-09T04:33:21;99928.47;;;17.30;86.26
60099;BME280;62818;49.394;8.686;2022-09-09T04:34:25;99924.28;;;16.92;86.89
60099;BME280;62818;49.394;8.686;2022-09-09T04:35:28;99919.41;;;17.42;84.74
60099;BME280;62818;49.394;8.686;2022-09-09T04:36:32;99925.47;;;17.49;83.46
60099;BME280;62818;49.394;8.686;2022-09-09T04:37:37;99935.94;;;17.39;83.38
60099;BME280;62818;49.394;8.686;2022-09-09T04:38:41;99931.66;;;16.79;85.81
60099;BME280;62818;49.394;8.686;2022-09-09T04:39:42;99937.16;;;16.84;86.50
60099;BME280;62818;49.394;8.686;2022-09-09T04:40:50;99927.19;;;16.91;86.25
60099;BME280;62818;49.394;8.686;2022-09-09T04:41:54;99927.56;;;16.65;87.95
60099;BME280;62818;49.394;8.686;2022-09-09T04:43:00;99929.56;;;16.69;87.82
60099;BME280;62818;49.394;8.686;2022-09-09T04:44:04;99929.13;;;16.84;87.07
60099;BME280;62818;49.394;8.686;2022-09-09T04:45:06;99927.72;;;16.81;87.58
60099;BME280;62818;49.394;8.686;2022-09-09T04:46:11;99937.19;;;17.14;85.94
60099;BME280;62818;49.394;8.686;2022-09-09T04:47:12;99937.47;;;16.94;86.01
60099;BME280;62818;49.394;8.686;2022-09-09T04:48:13;99942.94;;;17.40;84.87
60099;BME280;62818;49.394;8.686;2022-09-09T04:49:16;99938.78;;;17.15;84.68
60099;BME280;62818;49.394;8.686;2022-09-09T04:50:20;99941.22;;;17.16;85.26
60099;BME280;62818;49.394;8.686;2022-09-09T04:51:23;99940.44;;;17.16;84.88
60099;BME280;62818;49.394;8.686;2022-09-09T04:52:24;99943.59;;;17.24;84.59
60099;BME280;62818;49.394;8.686;2022-09-09T04:53:30;99949.78;;;16.95;85.78
60099;BME280;62818;49.394;8.686;2022-09-09T04:54:31;99950.66;;;17.48;84.05
60099;BME280;62818;49.394;8.686;2022-09-09T04:55:35;99946.72;;;17.62;83.29
60099;BME280;62818;49.394;8.686;2022-09-09T04:56:36;99951.63;;;18.12;81.21
60099;BME280;62818;49.394;8.686;2022-09-09T04:57:41;99949.41;;;17.74;82.43
60099;BME280;62818;49.394;8.686;2022-09-09T04:58:46;99955.81;;;17.85;82.46
60099;BME280;62818;49.394;8.686;2022-09-09T04:59:47;99950.00;;;17.88;81.27
60099;BME280;62818;49.394;8.686;2022-09-09T05:00:50;99950.06;;;17.05;84.77
60099;BME280;62818;49.394;8.686;2022-09-09T05:01:51;99952.94;;;17.33;84.46
60099;BME280;62818;49.394;8.686;2022-09-09T05:02:54;99953.63;;;17.70;83.36
60099;BME280;62818;49.394;8.686;2022-09-09T05:03:57;99962.16;;;17.37;83.85
60099;BME280;62818;49.394;8.686;2022-09-09T05:05:00;99957.38;;;17.39;83.58
60099;BME280;62818;49.394;8.686;2022-09-09T05:06:11;99948.34;;;17.11;85.85
60099;BME280;62818;49.394;8.686;2022-09-09T05:07:18;99957.13;;;17.29;83.96
60099;BME280;62818;49.394;8.686;2022-09-09T05:08:19;99962.94;;;17.26;84.48
60099;BME280;62818;49.394;8.686;2022-09-09T05:09:21;99953.50;;;17.24;84.45
60099;BME280;62818;49.394;8.686;2022-09-09T05:10:21;99953.16;;;17.20;85.02
60099;BME280;62818;49.394;8.686;2022-09-09T05:11:28;99955.75;;;16.79;86.84
60099;BME280;62818;49.394;8.686;2022-09-09T05:12:30;99950.41;;;16.79;86.74
60099;BME280;62818;49.394;8.686;2022-09-09T05:13:33;99946.84;;;16.49;88.56
60099;BME280;62818;49.394;8.686;2022-09-09T05:14:36;99949.53;;;16.85;87.82
60099;BME280;62818;49.394;8.686;2022-09-09T05:15:41;99955.94;;;17.25;84.83
60099;BME280;62818;49.394;8.686;2022-09-09T05:16:46;99950.00;;;17.23;84.64
60099;BME280;62818;49.394;8.686;2022-09-09T05:17:49;99951.09;;;16.74;87.03
60099;BME280;62818;49.394;8.686;2022-09-09T05:18:53;99949.38;;;16.80;87.77
60099;BME280;62818;49.394;8.686;2022-09-09T05:19:54;99957.09;;;16.88;88.01
60099;BME280;62818;49.394;8.686;2022-09-09T05:20:59;99954.41;;;16.88;86.90
60099;BME280;62818;49.394;8.686;2022-09-09T05:22:00;99951.28;;;16.91;87.92
60099;BME280;62818;49.394;8.686;2022-09-09T05:23:05;99952.41;;;16.83;87.14
60099;BME280;62818;49.394;8.686;2022-09-09T05:24:08;99957.19;;;17.11;85.60
60099;BME280;62818;49.394;8.686;2022-09-09T05:25:08;99951.72;;;16.88;87.34
60099;BME280;62818;49.394;8.686;2022-09-09T05:26:13;99958.41;;;16.97;86.52
60099;BME280;62818;49.394;8.686;2022-09-09T05:27:18;99959.56;;;17.01;86.28
60099;BME280;62818;49.394;8.686;2022-09-09T05:28:22;99965.66;;;17.08;86.60
60099;BME280;62818;49.394;8.686;2022-09-09T05:29:27;99963.63;;;16.92;87.36
60099;BME280;62818;49.394;8.686;2022-09-09T05:30:32;99959.75;;;16.88;87.21
60099;BME280;62818;49.394;8.686;2022-09-09T05:31:32;99964.31;;;17.17;86.82
60099;BME280;62818;49.394;8.686;2022-09-09T05:32:33;99966.06;;;17.12;85.80
60099;BME280;62818;49.394;8.686;2022-09-09T05:33:35;99963.84;;;16.90;87.03
60099;BME280;62818;49.394;8.686;2022-09-09T05:34:40;99962.00;;;16.91;86.90
60099;BME280;62818;49.394;8.686;2022-09-09T05:35:41;99966.91;;;16.94;86.78
60099;BME280;62818;49.394;8.686;2022-09-09T05:36:48;99967.03;;;17.29;85.69
60099;BME280;62818;49.394;8.686;2022-09-09T05:37:48;99963.19;;;16.95;86.55
60099;BME280;62818;49.394;8.686;2022-09-09T05:38:49;99969.84;;;17.04;86.44
60099;BME280;62818;49.394;8.686;2022-09-09T05:39:50;99969.81;;;17.22;85.20
60099;BME280;62818;49.394;8.686;2022-09-09T05:40:56;99969.16;;;17.09;86.38
60099;BME280;62818;49.394;8.686;2022-09-09T05:41:57;99975.66;;;17.01;86.16
60099;BME280;62818;49.394;8.686;2022-09-09T05:43:00;99973.00;;;17.42;85.68
60099;BME280;62818;49.394;8.686;2022-09-09T05:44:01;99973.69;;;17.49;84.69
60099;BME280;62818;49.394;8.686;2022-09-09T05:45:01;99975.16;;;17.22;84.68
60099;BME280;62818;49.394;8.686;2022-09-09T05:46:07;99979.25;;;16.95;86.63
60099;BME280;62818;49.394;8.686;2022-09-09T05:47:12;99977.97;;;16.97;86.05
60099;BME280;62818;49.394;8.686;2022-09-09T05:48:13;99969.56;;;17.53;85.24
60099;BME280;62818;49.394;8.686;2022-09-09T05:49:15;99986.69;;;17.52;83.68
60099;BME280;62818;49.394;8.686;2022-09-09T05:50:20;99984.88;;;17.05;86.29
60099;BME280;62818;49.394;8.686;2022-09-09T05:51:25;99979.88;;;17.09;86.36
60099;BME280;62818;49.394;8.686;2022-09-09T05:52:32;99985.81;;;17.11;86.64
60099;BME280;62818;49.394;8.686;2022-09-09T05:53:33;99981.69;;;17.26;85.21
60099;BME280;62818;49.394;8.686;2022-09-09T05:54:39;99982.28;;;16.98;85.71
60099;BME280;62818;49.394;8.686;2022-09-09T05:55:41;99974.84;;;17.00;86.59
60099;BME280;62818;49.394;8.686;2022-09-09T05:56:42;99975.47;;;17.14;85.96
60099;BME280;62818;49.394;8.686;2022-09-09T05:57:51;99976.84;;;17.05;86.26
60099;BME280;62818;49.394;8.686;2022-09-09T05:58:56;99978.53;;;17.18;85.78
60099;BME280;62818;49.394;8.686;2022-09-09T06:00:00;99979.81;;;16.97;87.19
60099;BME280;62818;49.394;8.686;2022-09-09T06:01:05;99980.13;;;17.07;86.14
60099;BME280;62818;49.394;8.686;2022-09-09T06:02:09;99981.88;;;17.13;86.55
60099;BME280;62818;49.394;8.686;2022-09-09T06:03:12;99982.28;;;17.28;85.29
60099;BME280;62818;49.394;8.686;2022-09-09T06:04:15;99978.34;;;17.84;84.09
60099;BME280;62818;49.394;8.686;2022-09-09T06:05:19;99980.47;;;17.40;85.03
60099;BME280;62818;49.394;8.686;2022-09-09T06:06:21;99985.06;;;17.63;83.71
60099;BME280;62818;49.394;8.686;2022-09-09T06:07:26;99981.13;;;17.77;82.68
60099;BME280;62818;49.394;8.686;2022-09-09T06:08:30;99980.78;;;18.20;84.15
60099;BME280;62818;49.394;8.686;2022-09-09T06:09:32;99981.41;;;18.73;79.77
60099;BME280;62818;49.394;8.686;2022-09-09T06:10:33;99984.16;;;18.27;79.42
60099;BME280;62818;49.394;8.686;2022-09-09T06:11:38;99985.47;;;18.47;79.65
60099;BME280;62818;49.394;8.686;2022-09-09T06:12:42;99984.25;;;18.95;78.29
60099;BME280;62818;49.394;8.686;2022-09-09T06:13:45;99979.50;;;17.88;81.00
60099;BME280;62818;49.394;8.686;2022-09-09T06:14:46;99988.41;;;17.47;82.33
60099;BME280;62818;49.394;8.686;2022-09-09T06:15:52;99980.56;;;18.10;82.11
60099;BME280;62818;49.394;8.686;2022-09-09T06:16:53;99986.72;;;18.96;77.81
60099;BME280;62818;49.394;8.686;2022-09-09T06:17:56;99990.38;;;19.47;75.33
60099;BME280;62818;49.394;8.686;2022-09-09T06:19:00;99987.00;;;18.83;76.16
60099;BME280;62818;49.394;8.686;2022-09-09T06:20:03;99984.28;;;18.32;77.70
60099;BME280;62818;49.394;8.686;2022-09-09T06:21:13;99981.69;;;17.67;82.28
60099;BME280;62818;49.394;8.686;2022-09-09T06:22:18;99982.75;;;17.66;82.33
60099;BME280;62818;49.394;8.686;2022-09-09T06:23:21;99987.44;;;17.41;83.05
60099;BME280;62818;49.394;8.686;2022-09-09T06:24:22;99988.38;;;18.23;81.58
60099;BME280;62818;49.394;8.686;2022-09-09T06:25:22;99978.56;;;17.70;82.27
60099;BME280;62818;49.394;8.686;2022-09-09T06:26:28;99981.00;;;18.53;79.66
60099;BME280;62818;49.394;8.686;2022-09-09T06:27:33;99982.66;;;19.22;75.99
60099;BME280;62818;49.394;8.686;2022-09-09T06:28:34;99990.63;;;19.45;74.17
60099;BME280;62818;49.394;8.686;2022-09-09T06:29:35;99992.84;;;19.65;73.90
60099;BME280;62818;49.394;8.686;2022-09-09T06:30:35;99984.94;;;18.62;76.56
60099;BME280;62818;49.394;8.686;2022-09-09T06:31:37;99984.31;;;18.83;77.44
60099;BME280;62818;49.394;8.686;2022-09-09T06:32:38;99990.28;;;19.42;74.68
60099;BME280;62818;49.394;8.686;2022-09-09T06:33:41;99984.03;;;19.24;75.34
60099;BME280;62818;49.394;8.686;2022-09-09T06:34:44;99982.22;;;18.11;78.93
60099;BME280;62818;49.394;8.686;2022-09-09T06:35:51;99983.94;;;18.17;79.42
60099;BME280;62818;49.394;8.686;2022-09-09T06:36:53;99977.53;;;17.95;79.76